createdAt,value
2023-05-10T00:00:00.535Z,204
2023-05-10T00:10:00.538Z,232
2023-05-10T00:20:00.560Z,226
2023-05-10T00:30:00.536Z,255
2023-05-10T00:40:00.539Z,267
2023-05-10T00:50:00.538Z,275
2023-05-10T01:00:00.517Z,281
2023-05-10T01:10:00.523Z,262
2023-05-10T01:20:00.560Z,224
2023-05-10T01:30:14.009Z,255
2023-05-10T01:40:00.521Z,297
2023-05-10T01:50:00.503Z,310
2023-05-10T02:00:00.519Z,278
2023-05-10T02:10:00.527Z,258
2023-05-10T02:20:00.502Z,280
2023-05-10T02:30:00.528Z,300
2023-05-10T02:40:00.520Z,300
2023-05-10T02:50:00.517Z,256
2023-05-10T03:00:00.553Z,266
2023-05-10T03:10:00.530Z,277
2023-05-10T03:20:00.505Z,275
2023-05-10T03:30:00.529Z,262
2023-05-10T03:40:00.504Z,263
2023-05-10T03:50:00.581Z,270
2023-05-10T04:00:00.548Z,250
2023-05-10T04:10:00.631Z,193
2023-05-10T04:20:00.627Z,156
2023-05-10T04:30:00.510Z,229
2023-05-10T04:40:00.506Z,158
2023-05-10T04:50:00.541Z,146
2023-05-10T05:00:00.507Z,129
2023-05-10T05:10:00.542Z,204
2023-05-10T05:20:00.496Z,203
2023-05-10T05:30:00.503Z,150
2023-05-10T05:40:00.492Z,225
2023-05-10T05:50:00.511Z,238
2023-05-10T06:00:00.566Z,234
2023-05-10T06:10:00.512Z,250
2023-05-10T06:20:00.548Z,266
2023-05-10T06:30:11.821Z,201
2023-05-10T06:40:00.529Z,238
2023-05-10T06:50:00.533Z,266
2023-05-10T07:00:00.537Z,244
2023-05-10T07:10:00.537Z,252
2023-05-10T07:20:00.538Z,222
2023-05-10T07:30:00.594Z,225
2023-05-10T07:40:00.530Z,200
2023-05-10T07:50:00.525Z,175
2023-05-10T08:00:00.581Z,193
2023-05-10T08:10:00.546Z,184
2023-05-10T08:20:00.614Z,168
2023-05-10T08:30:00.541Z,152
2023-05-10T08:40:00.553Z,125
2023-05-10T08:50:00.541Z,126
2023-05-10T09:00:00.511Z,119
2023-05-10T09:10:00.534Z,139
2023-05-10T09:20:00.510Z,155
2023-05-10T09:30:00.547Z,106
2023-05-10T09:40:00.515Z,68
2023-05-10T09:50:00.523Z,57
2023-05-10T10:00:00.510Z,42
2023-05-10T10:10:00.507Z,42
2023-05-10T10:20:00.573Z,51
2023-05-10T10:30:00.527Z,44
2023-05-10T10:40:00.546Z,35
2023-05-10T10:50:00.515Z,64
2023-05-10T11:00:00.494Z,93
2023-05-10T11:10:00.502Z,126
2023-05-10T11:20:00.499Z,126
2023-05-10T11:30:00.507Z,143
2023-05-10T11:40:00.541Z,103
2023-05-10T11:50:00.508Z,44
2023-05-10T12:00:00.541Z,28
2023-05-10T12:10:00.511Z,34
2023-05-10T12:20:00.515Z,44
2023-05-10T12:30:00.553Z,51
2023-05-10T12:40:00.562Z,32
2023-05-10T12:50:00.557Z,29
2023-05-10T13:00:00.701Z,31
2023-05-10T13:10:00.499Z,31
2023-05-10T13:20:00.540Z,27
2023-05-10T13:30:00.564Z,56
2023-05-10T13:40:00.521Z,287
2023-05-10T13:50:00.545Z,110
2023-05-10T14:00:05.254Z,37
2023-05-10T14:10:00.506Z,41
2023-05-10T14:20:00.520Z,58
2023-05-10T14:30:00.558Z,31
2023-05-10T14:40:00.564Z,57
2023-05-10T14:50:00.548Z,81
2023-05-10T15:00:00.602Z,53
2023-05-10T15:10:00.499Z,37
2023-05-10T15:20:00.516Z,35
2023-05-10T15:30:00.529Z,20
2023-05-10T15:40:00.536Z,35
2023-05-10T15:50:00.510Z,36
2023-05-10T16:00:00.580Z,26
2023-05-10T16:10:00.556Z,20
2023-05-10T16:20:00.553Z,22
2023-05-10T16:30:00.564Z,53
2023-05-10T16:40:00.680Z,31
2023-05-10T16:50:00.605Z,26
2023-05-10T17:00:00.871Z,22
2023-05-10T17:10:00.612Z,142
2023-05-10T17:20:00.550Z,260
2023-05-10T17:30:00.579Z,425
2023-05-10T17:50:00.685Z,336
2023-05-10T18:20:00.682Z,339
2023-05-10T18:40:00.465Z,208
2023-05-10T18:50:00.735Z,249
2023-05-10T19:00:00.559Z,135
2023-05-10T19:10:00.436Z,265
2023-05-10T19:20:00.459Z,242
2023-05-10T19:30:00.445Z,280
2023-05-10T19:40:00.494Z,251
2023-05-10T19:50:00.483Z,261
2023-05-10T20:00:00.444Z,358
2023-05-10T20:10:00.458Z,222
2023-05-10T20:20:00.489Z,171
2023-05-10T20:30:00.442Z,173
2023-05-10T20:40:00.492Z,149
2023-05-10T20:50:00.428Z,231
2023-05-10T21:00:00.465Z,161
2023-05-10T21:10:00.460Z,104
2023-05-10T21:20:00.442Z,65
2023-05-10T21:30:00.432Z,162
2023-05-10T21:40:00.462Z,90
2023-05-10T21:50:00.544Z,67
2023-05-10T22:00:00.538Z,61
2023-05-10T22:10:00.430Z,66
2023-05-10T22:20:00.432Z,50
2023-05-10T22:30:00.467Z,55
2023-05-10T22:40:00.476Z,59
2023-05-10T22:50:00.448Z,36
2023-05-10T23:00:00.457Z,45
2023-05-10T23:10:00.459Z,62
2023-05-10T23:20:00.456Z,30
2023-05-10T23:30:00.452Z,29
2023-05-10T23:40:00.456Z,37
2023-05-10T23:50:00.455Z,55
